createdAt,value
2023-01-08T00:00:21.806Z,99483.16
2023-01-08T00:05:24.655Z,99467.94
2023-01-08T00:10:27.394Z,99462.06
2023-01-08T00:15:31.707Z,99456.81
2023-01-08T00:20:34.466Z,99450.41
2023-01-08T00:25:37.243Z,99461.22
2023-01-08T00:30:41.930Z,99459.09
2023-01-08T00:35:45.118Z,99459.53
2023-01-08T00:40:49.354Z,99450.28
2023-01-08T00:45:53.974Z,99443.47
2023-01-08T00:50:56.966Z,99432.50
2023-01-08T00:56:02.848Z,99431.94
2023-01-08T01:01:12.692Z,99426.09
2023-01-08T01:06:16.179Z,99417.84
2023-01-08T01:11:20.998Z,99423.09
2023-01-08T01:16:25.805Z,99412.16
2023-01-08T01:21:30.881Z,99405.31
2023-01-08T01:26:34.666Z,99399.03
2023-01-08T01:31:39.088Z,99407.72
2023-01-08T01:36:41.929Z,99404.31
2023-01-08T01:41:47.442Z,99380.94
2023-01-08T01:46:51.630Z,99387.78
2023-01-08T01:52:00.898Z,99381.81
2023-01-08T01:57:04.309Z,99388.34
2023-01-08T02:02:09.188Z,99383.53
2023-01-08T02:07:16.894Z,99372.84
2023-01-08T02:12:27.491Z,99371.56
2023-01-08T02:17:40.607Z,99372.13
2023-01-08T02:22:54.989Z,99372.97
2023-01-08T02:28:03.334Z,99375.69
2023-01-08T02:33:06.171Z,99364.28
2023-01-08T02:38:11.724Z,99367.16
2023-01-08T02:43:23.215Z,99365.44
2023-01-08T02:48:34.702Z,99352.03
2023-01-08T02:53:41.909Z,99336.81
2023-01-08T02:58:47.961Z,99321.88
2023-01-08T03:03:55.864Z,99315.19
2023-01-08T03:09:00.531Z,99308.63
2023-01-08T03:14:11.032Z,99317.03
2023-01-08T03:19:22.753Z,99311.22
2023-01-08T03:24:29.267Z,99305.34
2023-01-08T03:29:35.353Z,99313.31
2023-01-08T03:34:41.334Z,99320.13
2023-01-08T03:39:48.565Z,99308.59
2023-01-08T03:44:52.893Z,99310.88
2023-01-08T03:49:58.270Z,99306.75
2023-01-08T03:55:01.013Z,99315.44
2023-01-08T04:00:06.345Z,99311.47
2023-01-08T04:05:09.644Z,99296.78
2023-01-08T04:10:12.631Z,99294.94
2023-01-08T04:15:17.542Z,99301.75
2023-01-08T04:20:20.515Z,99305.88
2023-01-08T04:25:23.281Z,99300.28
2023-01-08T04:30:27.501Z,99303.44
2023-01-08T04:35:30.289Z,99310.88
2023-01-08T04:40:33.746Z,99302.59
2023-01-08T04:45:37.900Z,99288.63
2023-01-08T04:50:40.656Z,99286.22
2023-01-08T04:55:43.422Z,99297.44
2023-01-08T05:00:47.650Z,99292.34
2023-01-08T05:05:50.402Z,99279.34
2023-01-08T05:10:53.207Z,99285.63
2023-01-08T05:16:00.151Z,99281.34
2023-01-08T05:21:04.868Z,99268.69
2023-01-08T05:26:08.056Z,99267.28
2023-01-08T05:31:12.913Z,99276.72
2023-01-08T05:36:15.879Z,99268.28
2023-01-08T05:41:18.799Z,99260.16
2023-01-08T05:46:23.289Z,99256.78
2023-01-08T05:51:26.031Z,99253.50
2023-01-08T05:56:28.817Z,99244.53
2023-01-08T06:01:34.059Z,99248.41
2023-01-08T06:06:36.864Z,99255.69
2023-01-08T06:11:39.752Z,99253.09
2023-01-08T06:16:44.287Z,99265.78
2023-01-08T06:21:47.033Z,99266.09
2023-01-08T06:26:49.950Z,99265.38
2023-01-08T06:31:54.068Z,99261.69
2023-01-08T06:36:56.822Z,99261.09
2023-01-08T06:41:59.683Z,99267.34
2023-01-08T06:47:03.849Z,99262.22
2023-01-08T06:52:06.595Z,99255.13
2023-01-08T06:57:09.396Z,99256.81
2023-01-08T07:02:15.967Z,99257.81
2023-01-08T07:07:18.862Z,99248.03
2023-01-08T07:12:21.697Z,99254.44
2023-01-08T07:17:25.860Z,99254.59
2023-01-08T07:22:28.947Z,99247.31
2023-01-08T07:27:31.763Z,99241.75
2023-01-08T07:32:35.886Z,99240.34
2023-01-08T07:37:40.868Z,99251.88
2023-01-08T07:42:43.607Z,99243.22
2023-01-08T07:47:47.769Z,99229.25
2023-01-08T07:52:50.557Z,99222.28
2023-01-08T07:57:53.394Z,99197.34
2023-01-08T08:03:03.780Z,99194.50
2023-01-08T08:08:10.899Z,99197.66
2023-01-08T08:13:14.273Z,99203.25
2023-01-08T08:18:18.583Z,99183.66
2023-01-08T08:23:21.394Z,99203.53
2023-01-08T08:28:24.155Z,99213.09
2023-01-08T08:33:28.343Z,99223.13
2023-01-08T08:38:31.126Z,99218.78
2023-01-08T08:43:34.045Z,99226.19
2023-01-08T08:48:38.215Z,99233.59
2023-01-08T08:53:41.009Z,99206.31
2023-01-08T08:58:45.246Z,99211.56
2023-01-08T09:03:50.068Z,99206.84
2023-01-08T09:08:52.836Z,99208.25
2023-01-08T09:13:55.845Z,99210.28
2023-01-08T09:18:59.991Z,99210.13
2023-01-08T09:24:03.311Z,99209.25
2023-01-08T09:29:06.176Z,99210.28
2023-01-08T09:34:10.629Z,99215.81
2023-01-08T09:39:13.521Z,99214.97
2023-01-08T09:44:19.360Z,99213.66
2023-01-08T09:49:28.562Z,99209.56
2023-01-08T09:54:31.425Z,99211.81
2023-01-08T09:59:34.372Z,99213.06
2023-01-08T10:04:38.860Z,99217.47
2023-01-08T10:09:41.999Z,99214.31
2023-01-08T10:14:49.897Z,99206.13
2023-01-08T10:19:54.325Z,99192.28
2023-01-08T10:25:07.403Z,99177.22
2023-01-08T10:30:17.394Z,99185.19
2023-01-08T10:35:24.014Z,99173.31
2023-01-08T10:40:31.569Z,99187.97
2023-01-08T10:45:34.518Z,99179.84
2023-01-08T10:50:38.811Z,99172.47
2023-01-08T10:55:41.614Z,99175.22
2023-01-08T11:00:44.475Z,99159.97
2023-01-08T11:05:50.039Z,99147.34
2023-01-08T11:10:57.944Z,99144.66
2023-01-08T11:16:05.033Z,99147.78
2023-01-08T11:21:25.356Z,99132.41
2023-01-08T11:26:30.205Z,99137.28
2023-01-08T11:31:40.170Z,99108.06
2023-01-08T11:36:50.029Z,99105.19
2023-01-08T11:42:18.700Z,99094.53
2023-01-08T11:47:33.669Z,99092.31
2023-01-08T11:52:47.114Z,99077.69
2023-01-08T11:58:05.166Z,99062.19
2023-01-08T12:03:17.759Z,99061.47
2023-01-08T12:08:28.855Z,99057.53
2023-01-08T12:13:52.097Z,99061.38
2023-01-08T12:19:16.178Z,99062.91
2023-01-08T12:24:35.096Z,99085.19
2023-01-08T12:30:01.460Z,99071.44
2023-01-08T12:35:12.029Z,99058.28
2023-01-08T12:40:21.699Z,99067.91
2023-01-08T12:45:28.990Z,99063.34
2023-01-08T12:50:42.868Z,99053.88
2023-01-08T12:55:54.651Z,99050.97
2023-01-08T13:01:07.288Z,99051.88
2023-01-08T13:06:13.110Z,99028.19
2023-01-08T13:11:26.086Z,99020.66
2023-01-08T13:16:29.393Z,99015.47
2023-01-08T13:21:38.196Z,99013.47
2023-01-08T13:26:42.496Z,99010.31
2023-01-08T13:31:45.886Z,99007.28
2023-01-08T13:36:58.228Z,98991.78
2023-01-08T13:42:14.607Z,98989.59
2023-01-08T13:47:23.115Z,98986.78
2023-01-08T13:52:35.795Z,98970.38
2023-01-08T13:57:44.046Z,98978.19
2023-01-08T14:02:50.281Z,98977.03
2023-01-08T14:07:53.879Z,98963.34
2023-01-08T14:13:07.109Z,98970.44
2023-01-08T14:18:14.015Z,98962.81
2023-01-08T14:23:22.144Z,98968.97
2023-01-08T14:28:26.719Z,98969.50
2023-01-08T14:33:33.248Z,98980.16
2023-01-08T14:38:36.143Z,98969.22
2023-01-08T14:43:44.461Z,98990.69
2023-01-08T14:48:48.714Z,98986.13
2023-01-08T14:53:54.851Z,99002.19
2023-01-08T14:59:00.115Z,98985.28
2023-01-08T15:04:08.130Z,98993.22
2023-01-08T15:09:22.291Z,98985.44
2023-01-08T15:14:29.063Z,98988.56
2023-01-08T15:19:40.475Z,98981.44
2023-01-08T15:24:44.640Z,98969.63
2023-01-08T15:29:51.486Z,98973.00
2023-01-08T15:34:54.469Z,98975.72
2023-01-08T15:39:57.872Z,98974.53
2023-01-08T15:45:02.002Z,98975.38
2023-01-08T15:50:05.034Z,98981.34
2023-01-08T15:55:12.199Z,98980.81
2023-01-08T16:00:18.595Z,98971.38
2023-01-08T16:05:24.335Z,98958.47
2023-01-08T16:10:29.055Z,98956.16
2023-01-08T16:15:33.300Z,98957.84
2023-01-08T16:20:36.354Z,98961.28
2023-01-08T16:25:40.046Z,98958.03
2023-01-08T16:30:44.772Z,98961.28
2023-01-08T16:35:58.061Z,98950.75
2023-01-08T16:41:01.090Z,98942.34
2023-01-08T16:46:10.385Z,98941.78
2023-01-08T16:51:14.018Z,98943.88
2023-01-08T16:56:16.815Z,98927.22
2023-01-08T17:01:21.014Z,98929.19
2023-01-08T17:06:24.024Z,98937.81
2023-01-08T17:11:26.889Z,98931.38
2023-01-08T17:16:31.015Z,98929.50
2023-01-08T17:21:35.970Z,98898.78
2023-01-08T17:26:38.802Z,98907.75
2023-01-08T17:31:42.930Z,98909.75
2023-01-08T17:36:45.776Z,98896.03
2023-01-08T17:42:06.049Z,98898.25
2023-01-08T17:47:10.841Z,98902.81
2023-01-08T17:52:13.691Z,98903.25
2023-01-08T17:57:16.851Z,98893.16
2023-01-08T18:02:21.436Z,98881.47
2023-01-08T18:07:24.540Z,98870.66
2023-01-08T18:12:27.329Z,98879.47
2023-01-08T18:17:32.486Z,98873.53
2023-01-08T18:22:35.494Z,98880.34
2023-01-08T18:27:38.256Z,98863.75
2023-01-08T18:32:42.447Z,98862.25
2023-01-08T18:37:45.320Z,98866.94
2023-01-08T18:42:48.436Z,98869.34
2023-01-08T18:47:55.069Z,98863.25
2023-01-08T18:52:57.916Z,98854.44
2023-01-08T18:58:00.834Z,98841.75
2023-01-08T19:03:08.747Z,98831.78
2023-01-08T19:08:11.803Z,98830.81
2023-01-08T19:13:14.738Z,98828.22
2023-01-08T19:18:21.332Z,98819.44
2023-01-08T19:23:24.175Z,98817.06
2023-01-08T19:28:26.974Z,98820.63
2023-01-08T19:33:31.179Z,98809.66
2023-01-08T19:38:33.999Z,98800.69
2023-01-08T19:43:42.749Z,98787.00
2023-01-08T19:48:46.996Z,98781.41
2023-01-08T19:53:49.787Z,98783.63
2023-01-08T19:58:52.591Z,98780.19
2023-01-08T20:03:57.909Z,98759.78
2023-01-08T20:09:01.126Z,98756.41
2023-01-08T20:14:05.344Z,98746.91
2023-01-08T20:19:11.156Z,98755.19
2023-01-08T20:24:14.975Z,98742.19
2023-01-08T20:29:18.303Z,98744.19
2023-01-08T20:34:22.489Z,98743.88
2023-01-08T20:39:25.831Z,98741.84
2023-01-08T20:44:28.773Z,98733.38
2023-01-08T20:49:33.060Z,98732.38
2023-01-08T20:54:36.061Z,98736.94
2023-01-08T20:59:38.856Z,98733.72
2023-01-08T21:04:43.786Z,98730.84
2023-01-08T21:09:46.693Z,98728.16
2023-01-08T21:14:49.733Z,98719.19
2023-01-08T21:19:54.092Z,98709.38
2023-01-08T21:24:56.823Z,98702.25
2023-01-08T21:29:59.703Z,98683.41
2023-01-08T21:35:04.095Z,98673.19
2023-01-08T21:40:07.987Z,98656.47
2023-01-08T21:45:26.191Z,98656.16
2023-01-08T21:50:30.275Z,98638.06
2023-01-08T21:55:33.666Z,98641.78
2023-01-08T22:00:37.949Z,98649.91
2023-01-08T22:05:42.173Z,98649.72
2023-01-08T22:10:45.322Z,98642.81
2023-01-08T22:15:48.182Z,98639.94
2023-01-08T22:21:00.688Z,98640.78
2023-01-08T22:26:05.688Z,98641.63
2023-01-08T22:31:09.825Z,98635.84
2023-01-08T22:36:15.110Z,98628.25
2023-01-08T22:41:19.776Z,98629.94
2023-01-08T22:46:22.957Z,98618.81
2023-01-08T22:51:27.534Z,98612.06
2023-01-08T22:56:30.429Z,98604.94
2023-01-08T23:01:33.302Z,98613.75
2023-01-08T23:06:37.444Z,98606.47
2023-01-08T23:11:40.248Z,98599.22
2023-01-08T23:16:43.887Z,98577.41
2023-01-08T23:21:48.087Z,98575.53
2023-01-08T23:26:50.832Z,98567.09
2023-01-08T23:31:53.747Z,98556.28
2023-01-08T23:36:57.900Z,98549.84
2023-01-08T23:42:00.731Z,98539.03
2023-01-08T23:47:03.588Z,98540.72
2023-01-08T23:52:07.710Z,98533.28
2023-01-08T23:57:10.734Z,98518.22
